Time;durP1;ratioP1;P1;durP2;ratioP2;P2;SDS_P1;SDS_P2;PMS_P1;PMS_P2;Temp;Humidity;BMP_temperature;BMP_pressure;BME280_temperature;BME280_humidity;BME280_pressure;Samples;Min_cycle;Max_cycle;Signal;HPM_P1;HPM_P2
2023/08/28 00:00:11;;;;;;;13.50;11.25;;;;;;;30.73;45.58;99293.84;4898145;29;20064;-74
2023/08/28 00:02:41;;;;;;;12.27;10.07;;;;;;;30.72;45.72;99300.44;4898302;29;20055;-73
2023/08/28 00:05:09;;;;;;;13.18;10.30;;;;;;;30.70;45.77;99297.09;4897939;29;20059;-73
2023/08/28 00:07:37;;;;;;;12.32;10.05;;;;;;;30.69;45.74;99302.81;4897948;29;20135;-73
2023/08/28 00:10:06;;;;;;;12.13;9.82;;;;;;;30.67;45.73;99294.81;4898178;29;20053;-73
2023/08/28 00:12:40;;;;;;;11.05;9.48;;;;;;;30.64;45.89;99303.59;4897935;29;20045;-74
2023/08/28 00:15:10;;;;;;;11.85;10.38;;;;;;;30.65;45.82;99301.66;4898913;29;20053;-74
2023/08/28 00:17:39;;;;;;;11.80;9.25;;;;;;;30.63;45.88;99296.38;4900430;29;20048;-72
2023/08/28 00:20:08;;;;;;;12.10;9.80;;;;;;;30.62;45.72;99286.47;4897992;29;20048;-74
2023/08/28 00:22:37;;;;;;;10.85;9.43;;;;;;;30.62;45.91;99296.63;4897587;29;20084;-74
2023/08/28 00:25:07;;;;;;;11.60;9.48;;;;;;;30.60;46.19;99288.63;4897791;29;20048;-74
2023/08/28 00:27:37;;;;;;;11.93;9.27;;;;;;;30.59;45.88;99291.59;4897701;29;20052;-74
2023/08/28 00:30:06;;;;;;;10.75;8.77;;;;;;;30.59;46.05;99297.09;4897917;29;20053;-75
2023/08/28 00:32:35;;;;;;;11.00;8.65;;;;;;;30.57;45.97;99293.75;4897691;29;20084;-74
2023/08/28 00:35:03;;;;;;;11.70;9.18;;;;;;;30.57;45.87;99294.59;4897566;29;20143;-73
2023/08/28 00:37:31;;;;;;;10.38;8.70;;;;;;;30.56;46.09;99281.91;4897586;29;20052;-74
2023/08/28 00:39:59;;;;;;;10.77;9.05;;;;;;;30.54;46.20;99273.09;4897384;29;20056;-73
2023/08/28 00:42:28;;;;;;;9.25;8.00;;;;;;;30.52;46.45;99272.50;4897683;29;20100;-73
2023/08/28 00:44:57;;;;;;;9.40;8.43;;;;;;;30.50;46.29;99271.91;4898638;29;20502;-74
2023/08/28 00:47:25;;;;;;;10.27;8.23;;;;;;;30.51;46.44;99275.50;4897970;29;20053;-73
2023/08/28 00:49:54;;;;;;;8.82;7.75;;;;;;;30.49;46.79;99270.22;4897286;29;20048;-74
2023/08/28 00:52:22;;;;;;;9.07;8.07;;;;;;;30.46;46.37;99271.56;4897282;29;20075;-74
2023/08/28 00:54:50;;;;;;;8.88;7.85;;;;;;;30.46;46.36;99281.72;4897083;29;20088;-73
2023/08/28 00:57:19;;;;;;;10.05;7.60;;;;;;;30.45;46.79;99269.06;4897450;29;20099;-74
2023/08/28 00:59:47;;;;;;;8.45;7.35;;;;;;;30.44;46.75;99267.38;4897305;29;20496;-74
2023/08/28 01:02:17;;;;;;;9.40;7.38;;;;;;;30.43;46.62;99271.22;4897175;29;20483;-74
2023/08/28 01:04:45;;;;;;;9.90;7.63;;;;;;;30.41;46.67;99267.88;4896962;29;20056;-73
2023/08/28 01:07:21;;;;;;;8.20;6.75;;;;;;;30.41;46.88;99267.88;4897013;29;20080;-74
2023/08/28 01:10:02;;;;;;;8.05;6.85;;;;;;;30.39;46.69;99259.84;4897065;29;20052;-74
2023/08/28 01:12:39;;;;;;;9.02;7.13;;;;;;;30.38;47.22;99271.94;4897510;29;20053;-75
2023/08/28 01:15:13;;;;;;;7.35;6.43;;;;;;;30.36;47.00;99271.34;4898813;29;20061;-74
2023/08/28 01:17:44;;;;;;;8.60;6.90;;;;;;;30.35;47.16;99271.59;4896872;29;20100;-74
2023/08/28 01:20:15;;;;;;;8.73;6.53;;;;;;;30.34;46.94;99261.69;4897155;29;20052;-74
2023/08/28 01:22:55;;;;;;;8.88;6.20;;;;;;;30.32;47.13;99263.84;4897080;29;20052;-73
2023/08/28 01:25:25;;;;;;;9.10;6.50;;;;;;;30.31;47.17;99259.44;4896992;29;20139;-74
2023/08/28 01:27:55;;;;;;;8.25;6.43;;;;;;;30.31;47.13;99256.69;4896821;29;20052;-74
2023/08/28 01:30:23;;;;;;;7.13;6.20;;;;;;;30.29;47.26;99261.56;4896804;29;20084;-74
2023/08/28 01:32:51;;;;;;;7.55;5.75;;;;;;;30.29;47.26;99258.81;4896846;29;20060;-75
2023/08/28 01:35:24;;;;;;;7.28;5.95;;;;;;;30.27;47.52;99261.81;4895983;29;20111;-74
2023/08/28 01:38:04;;;;;;;7.80;5.85;;;;;;;30.25;47.22;99260.41;4896795;29;20048;-73
2023/08/28 01:40:39;;;;;;;6.78;5.60;;;;;;;30.20;47.46;99261.13;4897316;29;20557;-74
2023/08/28 01:43:09;;;;;;;7.85;5.45;;;;;;;30.21;47.34;99262.81;4897950;29;20428;-73
2023/08/28 01:45:38;;;;;;;6.88;5.15;;;;;;;30.20;47.54;99258.38;4896768;29;20147;-73
2023/08/28 01:48:07;;;;;;;7.60;5.38;;;;;;;30.18;47.58;99253.13;4896757;29;20049;-73
2023/08/28 01:50:35;;;;;;;6.45;5.07;;;;;;;30.16;47.67;99255.28;4896663;29;20056;-73
2023/08/28 01:53:04;;;;;;;6.20;4.93;;;;;;;30.15;47.71;99256.34;4896548;29;20045;-74
2023/08/28 01:56:11;;;;;;;7.13;5.07;;;;;;;30.16;47.67;99263.53;4896450;29;20509;-73
2023/08/28 01:58:43;;;;;;;7.13;5.00;;;;;;;30.14;47.74;99259.34;4892099;29;20417;-73
2023/08/28 02:01:12;;;;;;;6.32;4.78;;;;;;;30.12;47.92;99265.09;4896665;29;20053;-74
2023/08/28 02:03:40;;;;;;;5.63;4.78;;;;;;;30.12;47.83;99254.09;4896387;29;20052;-73
2023/08/28 02:06:09;;;;;;;7.20;5.07;;;;;;;30.12;47.83;99264.28;4898469;29;20056;-74
2023/08/28 02:08:38;;;;;;;6.85;4.50;;;;;;;30.10;48.12;99256.25;4896743;29;20057;-74
2023/08/28 02:11:06;;;;;;;6.13;4.93;;;;;;;30.08;48.04;99261.16;4896459;29;20487;-74
2023/08/28 02:13:34;;;;;;;6.85;4.78;;;;;;;30.09;47.97;99264.75;4896404;29;20048;-74
2023/08/28 02:16:04;;;;;;;5.32;4.22;;;;;;;30.06;47.95;99266.03;4896175;29;20490;-74
2023/08/28 02:18:32;;;;;;;5.65;4.72;;;;;;;30.04;48.13;99259.94;4896548;29;20067;-73
2023/08/28 02:21:01;;;;;;;7.82;5.03;;;;;;;30.05;48.33;99264.38;4896557;29;20112;-73
2023/08/28 02:23:30;;;;;;;6.43;4.57;;;;;;;30.03;48.27;99266.53;4896614;29;20520;-73
2023/08/28 02:25:58;;;;;;;5.13;4.20;;;;;;;30.03;48.22;99260.19;4896237;29;20502;-74
2023/08/28 02:28:26;;;;;;;5.55;4.60;;;;;;;30.01;48.02;99265.91;4896301;29;20052;-74
2023/08/28 02:30:54;;;;;;;5.43;4.40;;;;;;;29.99;48.42;99259.00;4898535;29;20052;-74
2023/08/28 02:33:24;;;;;;;7.35;5.00;;;;;;;29.99;48.18;99265.31;4896497;29;20092;-73
2023/08/28 02:35:52;;;;;;;6.28;4.70;;;;;;;29.96;48.29;99265.81;4896235;29;20131;-74
2023/08/28 02:38:20;;;;;;;5.47;4.25;;;;;;;29.94;48.28;99267.97;4896328;29;20056;-74
2023/08/28 02:40:48;;;;;;;6.13;4.32;;;;;;;29.92;48.39;99268.22;4896347;29;20052;-73
2023/08/28 02:43:16;;;;;;;6.10;4.40;;;;;;;29.91;48.30;99273.94;4896098;29;20045;-73
2023/08/28 02:45:44;;;;;;;5.72;4.18;;;;;;;29.89;48.54;99270.59;4896629;29;20052;-73
2023/08/28 02:48:13;;;;;;;5.85;4.50;;;;;;;29.86;48.20;99276.59;4899736;29;20056;-74
2023/08/28 02:50:42;;;;;;;5.43;4.47;;;;;;;29.86;48.39;99282.09;4899482;29;20055;-74
2023/08/28 02:53:10;;;;;;;6.95;4.50;;;;;;;29.83;48.34;99272.41;4899631;29;20052;-74
2023/08/28 02:55:40;;;;;;;5.40;4.20;;;;;;;29.84;48.59;99273.25;4900970;29;20491;-74
2023/08/28 02:58:09;;;;;;;5.82;4.45;;;;;;;29.82;48.51;99281.75;4899309;29;20143;-74
2023/08/28 03:00:41;;;;;;;5.80;4.18;;;;;;;29.81;48.82;99280.06;4899264;29;20044;-73
2023/08/28 03:03:10;;;;;;;5.82;4.30;;;;;;;29.81;48.63;99273.72;4899413;29;20087;-73
2023/08/28 03:05:38;;;;;;;5.47;4.03;;;;;;;29.80;48.45;99277.53;4899099;29;20053;-73
2023/08/28 03:08:08;;;;;;;5.40;4.13;;;;;;;29.77;48.44;99284.38;4899176;29;20051;-74
2023/08/28 03:10:36;;;;;;;6.45;4.32;;;;;;;29.77;48.59;99273.38;4899067;29;20054;-73
2023/08/28 03:13:04;;;;;;;5.35;4.18;;;;;;;29.73;48.60;99274.94;4899264;29;20155;-74
2023/08/28 03:15:33;;;;;;;5.75;4.07;;;;;;;29.75;48.85;99285.69;4899156;29;20055;-73
2023/08/28 03:18:01;;;;;;;5.80;4.00;;;;;;;29.74;48.87;99292.28;4899210;29;20052;-74
2023/08/28 03:20:29;;;;;;;6.18;4.43;;;;;;;29.74;48.60;99300.50;4899090;29;20056;-74
2023/08/28 03:22:58;;;;;;;7.10;4.00;;;;;;;29.72;48.80;99297.16;4902494;29;20059;-75
2023/08/28 03:25:27;;;;;;;5.60;4.45;;;;;;;29.70;48.94;99299.31;4899251;29;20051;-74
2023/08/28 03:27:55;;;;;;;7.13;4.15;;;;;;;29.70;49.06;99294.63;4899144;29;20048;-74
2023/08/28 03:30:24;;;;;;;5.30;3.92;;;;;;;29.69;49.14;99294.88;4898991;29;20427;-74
2023/08/28 03:32:52;;;;;;;5.95;4.45;;;;;;;29.67;48.94;99300.63;4898768;29;20053;-74
2023/08/28 03:35:20;;;;;;;5.68;4.15;;;;;;;29.64;48.77;99293.72;4898834;29;20143;-74
2023/08/28 03:37:48;;;;;;;5.47;3.90;;;;;;;29.63;49.03;99292.03;4898663;29;20052;-74
2023/08/28 03:40:17;;;;;;;6.07;4.60;;;;;;;29.61;48.94;99294.16;4898835;29;20132;-74
2023/08/28 03:42:46;;;;;;;5.65;4.53;;;;;;;29.60;49.07;99292.50;4898691;29;20049;-73
2023/08/28 03:45:14;;;;;;;5.43;3.90;;;;;;;29.59;48.75;99298.22;4898621;29;20100;-73
2023/08/28 03:47:42;;;;;;;5.93;4.00;;;;;;;29.59;48.93;99287.25;4898544;29;20131;-73
2023/08/28 03:50:10;;;;;;;6.00;3.92;;;;;;;29.57;49.13;99287.47;4898361;29;20463;-73
2023/08/28 03:52:39;;;;;;;7.75;4.30;;;;;;;29.55;49.04;99292.38;4898749;29;20052;-73
2023/08/28 03:55:08;;;;;;;6.30;4.10;;;;;;;29.55;49.03;99300.63;4899372;29;20418;-73
2023/08/28 03:57:36;;;;;;;6.53;4.35;;;;;;;29.55;49.14;99306.13;4899834;29;20478;-73
2023/08/28 04:00:11;;;;;;;5.68;4.00;;;;;;;29.53;49.03;99305.53;4898383;29;20095;-73
2023/08/28 04:02:39;;;;;;;6.18;4.63;;;;;;;29.51;48.93;99301.31;4898355;29;20400;-73
2023/08/28 04:05:08;;;;;;;5.68;4.25;;;;;;;29.50;48.97;99300.50;4898022;29;20135;-73
2023/08/28 04:07:36;;;;;;;6.22;4.15;;;;;;;29.47;48.93;99300.94;4898427;29;20056;-73
2023/08/28 04:10:05;;;;;;;6.00;3.85;;;;;;;29.47;49.27;99305.59;4898161;29;20515;-73
2023/08/28 04:12:34;;;;;;;6.22;3.85;;;;;;;29.44;48.98;99298.69;4898046;29;20044;-73
2023/08/28 04:15:03;;;;;;;5.85;4.22;;;;;;;29.42;48.90;99308.22;4897931;29;20513;-73
2023/08/28 04:17:33;;;;;;;5.75;4.00;;;;;;;29.42;49.17;99309.06;4897846;29;20052;-73
2023/08/28 04:20:09;;;;;;;5.53;4.05;;;;;;;29.39;49.12;99315.03;4897919;29;20057;-73
2023/08/28 04:22:37;;;;;;;6.00;4.13;;;;;;;29.38;49.44;99302.38;4897917;29;20048;-73
2023/08/28 04:25:06;;;;;;;5.20;3.90;;;;;;;29.39;49.21;99306.78;4897870;29;20120;-73
2023/08/28 04:27:35;;;;;;;5.55;4.07;;;;;;;29.36;49.02;99304.53;4897778;29;20044;-73
2023/08/28 04:30:03;;;;;;;5.38;4.00;;;;;;;29.34;49.10;99301.19;4897718;29;20076;-73
2023/08/28 04:32:33;;;;;;;5.30;4.03;;;;;;;29.34;49.13;99301.19;4897734;29;20049;-73
2023/08/28 04:35:02;;;;;;;6.65;3.90;;;;;;;29.31;48.93;99307.97;4898166;29;20052;-73
2023/08/28 04:37:30;;;;;;;6.45;3.88;;;;;;;29.32;49.08;99303.31;4898203;29;20124;-71
2023/08/28 04:39:59;;;;;;;5.57;4.00;;;;;;;29.28;49.30;99307.63;4897782;29;20513;-74
2023/08/28 04:42:27;;;;;;;6.47;4.20;;;;;;;29.28;49.32;99302.97;4897347;29;20052;-74
2023/08/28 04:44:55;;;;;;;5.55;3.97;;;;;;;29.26;49.06;99296.03;4897634;29;20091;-74
2023/08/28 04:47:23;;;;;;;6.15;3.85;;;;;;;29.26;49.60;99291.38;4897494;29;20053;-73
2023/08/28 04:49:52;;;;;;;6.82;4.20;;;;;;;29.23;49.54;99288.25;4897370;29;20048;-73
2023/08/28 04:52:22;;;;;;;6.30;4.13;;;;;;;29.24;49.30;99284.44;4897329;29;20148;-73
2023/08/28 04:54:50;;;;;;;6.18;3.72;;;;;;;29.23;49.79;99282.75;4897138;29;20072;-72
2023/08/28 04:57:18;;;;;;;6.40;4.10;;;;;;;29.22;49.62;99273.69;4897060;29;20148;-73
2023/08/28 04:59:46;;;;;;;5.43;4.03;;;;;;;29.21;49.51;99276.69;4897418;29;20052;-73
2023/08/28 05:02:14;;;;;;;5.43;4.15;;;;;;;29.20;49.68;99277.75;4897264;29;20052;-74
2023/08/28 05:04:43;;;;;;;7.00;4.40;;;;;;;29.20;49.78;99277.75;4896867;29;20120;-75
2023/08/28 05:07:12;;;;;;;5.88;4.18;;;;;;;29.19;49.74;99276.09;4897031;29;20132;-75
2023/08/28 05:09:40;;;;;;;6.45;3.92;;;;;;;29.17;49.84;99273.56;4897018;29;20052;-74
2023/08/28 05:12:09;;;;;;;5.40;3.80;;;;;;;29.17;49.63;99276.31;4896902;29;20052;-73
2023/08/28 05:14:37;;;;;;;6.22;4.30;;;;;;;29.16;49.67;99266.41;4897105;29;20052;-73
2023/08/28 05:17:06;;;;;;;5.65;3.75;;;;;;;29.17;49.70;99264.50;4896792;29;20045;-73
2023/08/28 05:19:35;;;;;;;6.45;4.45;;;;;;;29.18;49.52;99263.44;4897032;29;20387;-73
2023/08/28 05:22:03;;;;;;;6.15;4.25;;;;;;;29.17;49.86;99256.28;4896972;29;20466;-73
2023/08/28 05:24:33;;;;;;;6.88;4.55;;;;;;;29.14;49.87;99252.06;4896953;29;20056;-73
2023/08/28 05:27:02;;;;;;;5.55;4.10;;;;;;;29.14;49.93;99248.47;4896980;29;20497;-74
2023/08/28 05:29:30;;;;;;;6.18;4.20;;;;;;;29.14;49.90;99257.56;4896848;29;20053;-74
2023/08/28 05:31:58;;;;;;;6.05;4.55;;;;;;;29.13;50.21;99255.06;4896863;29;20119;-75
2023/08/28 05:34:26;;;;;;;5.47;4.28;;;;;;;29.14;50.10;99262.22;4896390;29;20135;-72
2023/08/28 05:36:55;;;;;;;6.95;4.80;;;;;;;29.13;50.19;99260.53;4896365;29;20058;-75
2023/08/28 05:39:23;;;;;;;5.90;4.38;;;;;;;29.13;50.40;99266.03;4896425;29;20422;-75
2023/08/28 05:41:53;;;;;;;5.80;4.07;;;;;;;29.13;50.29;99268.78;4896550;29;20059;-74
2023/08/28 05:44:21;;;;;;;6.68;4.38;;;;;;;29.11;49.89;99262.69;4896543;29;20081;-75
2023/08/28 05:46:49;;;;;;;5.25;4.25;;;;;;;29.13;50.37;99266.03;4896565;29;20049;-75
2023/08/28 05:49:17;;;;;;;5.78;4.22;;;;;;;29.10;50.70;99267.34;4896813;29;20479;-73
2023/08/28 05:51:45;;;;;;;9.30;4.68;;;;;;;29.12;50.73;99258.88;4896398;29;20056;-75
2023/08/28 05:54:13;;;;;;;7.03;4.50;;;;;;;29.10;50.83;99247.31;4896442;29;20049;-72
2023/08/28 05:56:42;;;;;;;6.05;4.32;;;;;;;29.10;50.65;99244.56;4896230;29;20100;-75
2023/08/28 05:59:12;;;;;;;7.32;4.47;;;;;;;29.11;50.47;99233.34;4891465;29;20048;-73
2023/08/28 06:01:40;;;;;;;6.47;4.43;;;;;;;29.11;50.66;99240.72;4895974;29;20059;-75
2023/08/28 06:04:08;;;;;;;6.20;5.03;;;;;;;29.11;50.84;99244.31;4893347;29;20091;-74
2023/08/28 06:06:38;;;;;;;6.65;4.90;;;;;;;29.12;51.08;99236.91;4896201;29;20041;-75
2023/08/28 06:09:07;;;;;;;6.47;4.93;;;;;;;29.12;51.04;99236.91;4895921;29;20045;-74
2023/08/28 06:11:35;;;;;;;6.95;5.15;;;;;;;29.12;51.27;99243.22;4896435;29;20079;-73
2023/08/28 06:14:05;;;;;;;8.23;5.18;;;;;;;29.11;51.04;99238.81;4896349;29;20139;-74
2023/08/28 06:16:35;;;;;;;7.47;5.10;;;;;;;29.11;51.43;99243.47;4896177;29;20048;-74
2023/08/28 06:19:03;;;;;;;7.38;5.75;;;;;;;29.12;51.35;99247.88;4896321;29;20498;-74
2023/08/28 06:21:32;;;;;;;8.18;5.43;;;;;;;29.12;51.51;99247.88;4897974;29;20045;-74
2023/08/28 06:24:00;;;;;;;7.25;5.35;;;;;;;29.12;51.37;99242.41;4900153;29;20056;-69
2023/08/28 06:26:28;;;;;;;6.80;5.10;;;;;;;29.12;51.38;99240.50;4901721;29;20045;-72
2023/08/28 06:28:59;;;;;;;6.45;5.20;;;;;;;29.12;51.17;99236.91;4890131;29;20455;-72
2023/08/28 06:31:27;;;;;;;10.63;5.18;;;;;;;29.11;51.12;99238.81;4900014;29;20064;-72
2023/08/28 06:33:56;;;;;;;7.47;5.30;;;;;;;29.11;51.42;99235.25;4902150;29;20051;-73
2023/08/28 06:36:25;;;;;;;8.50;5.60;;;;;;;29.12;51.23;99231.41;4899588;29;20064;-72
2023/08/28 06:38:53;;;;;;;6.78;5.40;;;;;;;29.10;51.19;99228.09;4899544;29;20053;-72
2023/08/28 06:41:21;;;;;;;7.28;5.72;;;;;;;29.10;51.25;99233.56;4899670;29;20056;-74
2023/08/28 06:43:50;;;;;;;7.13;5.75;;;;;;;29.10;51.81;99233.56;4899604;29;20410;-73
2023/08/28 06:46:18;;;;;;;6.80;5.32;;;;;;;29.10;51.41;99225.34;4899906;29;20109;-74
2023/08/28 06:48:48;;;;;;;8.95;5.78;;;;;;;29.09;51.65;99227.25;4899906;29;20052;-75
2023/08/28 06:51:17;;;;;;;7.32;5.85;;;;;;;29.10;51.48;99228.09;4899630;29;20494;-75
2023/08/28 06:53:46;;;;;;;10.75;5.90;;;;;;;29.09;51.67;99221.75;4899349;29;20569;-71
2023/08/28 06:56:14;;;;;;;8.95;5.97;;;;;;;29.10;51.89;99214.34;4899048;29;20056;-70
2023/08/28 06:58:42;;;;;;;7.75;6.18;;;;;;;29.08;51.52;99209.94;4899500;29;20060;-76
2023/08/28 07:01:11;;;;;;;8.45;6.00;;;;;;;29.08;51.64;99209.09;4899367;29;20482;-79
2023/08/28 07:03:39;;;;;;;7.45;5.63;;;;;;;29.08;51.78;99204.44;4900435;29;20049;-78
2023/08/28 07:06:07;;;;;;;7.88;5.85;;;;;;;29.08;51.89;99198.97;4900071;29;20052;-75
2023/08/28 07:08:37;;;;;;;7.55;5.65;;;;;;;29.08;51.57;99201.72;4899651;29;20059;-74
2023/08/28 07:11:05;;;;;;;9.60;5.72;;;;;;;29.10;52.12;99206.13;4899060;29;20487;-76
2023/08/28 07:13:35;;;;;;;8.75;5.70;;;;;;;29.10;51.94;99212.44;4904937;29;20108;-76
2023/08/28 07:16:04;;;;;;;7.43;5.80;;;;;;;29.11;52.03;99214.13;4918439;29;20605;-77
2023/08/28 07:18:32;;;;;;;8.02;6.15;;;;;;;29.11;51.93;99208.63;4918880;29;20052;-77
2023/08/28 07:21:00;;;;;;;7.63;5.70;;;;;;;29.11;51.76;99197.63;4918653;29;20086;-77
2023/08/28 07:23:29;;;;;;;7.95;6.05;;;;;;;29.12;52.05;99192.97;4918231;29;20422;-77
2023/08/28 07:26:02;;;;;;;9.75;6.05;;;;;;;29.12;52.06;99190.25;4918748;29;20048;-76
2023/08/28 07:28:30;;;;;;;8.68;6.15;;;;;;;29.10;52.21;99178.66;4918464;29;20059;-77
2023/08/28 07:31:01;;;;;;;9.32;6.00;;;;;;;29.12;51.90;99192.97;4918978;29;20543;-77
2023/08/28 07:33:29;;;;;;;8.40;5.82;;;;;;;29.14;51.94;99179.84;4917398;29;20115;-77
2023/08/28 07:35:57;;;;;;;8.75;6.20;;;;;;;29.13;52.25;99168.03;4918330;29;20052;-76
2023/08/28 07:38:25;;;;;;;8.60;6.25;;;;;;;29.14;52.38;99168.88;4918289;29;20055;-76
2023/08/28 07:40:55;;;;;;;10.85;6.25;;;;;;;29.15;52.32;99163.16;4918385;29;20280;-76
2023/08/28 07:43:25;;;;;;;8.50;6.13;;;;;;;29.17;52.45;99165.66;4918127;29;20052;-76
2023/08/28 07:45:53;;;;;;;9.50;6.20;;;;;;;29.16;52.19;99173.06;4918006;29;20084;-76
2023/08/28 07:48:21;;;;;;;7.75;6.25;;;;;;;29.17;52.12;99165.66;4917982;29;20112;-76
2023/08/28 07:50:49;;;;;;;9.18;6.05;;;;;;;29.17;52.19;99162.91;4918029;29;20144;-76
2023/08/28 07:53:17;;;;;;;9.18;5.93;;;;;;;29.19;52.17;99171.75;4917955;29;20052;-76
2023/08/28 07:55:45;;;;;;;9.25;6.32;;;;;;;29.18;52.18;99172.81;4917739;29;20056;-76
2023/08/28 07:58:13;;;;;;;8.75;6.50;;;;;;;29.20;52.27;99176.16;4917940;29;20202;-76
2023/08/28 08:00:44;;;;;;;9.98;6.70;;;;;;;29.20;52.43;99178.91;4917707;29;20519;-77
2023/08/28 08:03:12;;;;;;;9.63;6.20;;;;;;;29.21;52.29;99184.16;4917664;29;20067;-77
2023/08/28 08:05:41;;;;;;;7.88;6.07;;;;;;;29.22;52.51;99185.81;4918961;29;20052;-77
2023/08/28 08:08:09;;;;;;;8.98;6.70;;;;;;;29.24;52.43;99182.81;4919248;29;20054;-77
2023/08/28 08:10:37;;;;;;;9.20;6.43;;;;;;;29.23;52.54;99186.66;4918427;29;20084;-77
2023/08/28 08:13:05;;;;;;;7.68;6.18;;;;;;;29.25;52.48;99184.53;4917900;29;20418;-76
2023/08/28 08:15:37;;;;;;;8.48;6.25;;;;;;;29.26;52.41;99192.53;4917353;29;20097;-76
2023/08/28 08:18:07;;;;;;;9.23;6.30;;;;;;;29.27;52.18;99179.63;4917684;29;20111;-77
2023/08/28 08:20:35;;;;;;;10.82;6.70;;;;;;;29.26;52.42;99176.03;4917967;29;20062;-77
2023/08/28 08:23:04;;;;;;;9.00;6.70;;;;;;;29.27;52.18;99163.16;4917384;29;20044;-76
2023/08/28 08:25:34;;;;;;;12.45;6.28;;;;;;;29.28;52.49;99160.16;4916756;29;20494;-76
2023/08/28 08:28:03;;;;;;;9.63;6.88;;;;;;;29.29;52.30;99153.59;4917322;29;20552;-77
2023/08/28 08:30:31;;;;;;;8.77;6.28;;;;;;;29.29;52.59;99148.09;4917165;29;20513;-77
2023/08/28 08:32:59;;;;;;;12.43;6.65;;;;;;;29.31;52.55;99139.59;4917910;29;20351;-77
2023/08/28 08:35:29;;;;;;;9.90;6.35;;;;;;;29.31;52.84;99142.34;4917677;29;20059;-77
2023/08/28 08:37:57;;;;;;;10.70;7.10;;;;;;;29.33;52.61;99140.19;4917707;29;20052;-77
2023/08/28 08:40:27;;;;;;;9.00;6.63;;;;;;;29.33;52.84;99129.22;4917498;29;20059;-77
2023/08/28 08:42:55;;;;;;;8.57;6.80;;;;;;;29.34;52.53;99119.94;4917164;29;20067;-75
2023/08/28 08:45:27;;;;;;;9.77;6.57;;;;;;;29.34;52.66;99115.28;4916869;29;20045;-77
2023/08/28 08:47:58;;;;;;;8.63;6.00;;;;;;;29.35;52.32;99113.34;4916864;29;20135;-76
2023/08/28 08:50:31;;;;;;;10.55;7.20;;;;;;;29.37;52.55;99113.94;4916780;29;20052;-74
2023/08/28 08:53:06;;;;;;;9.60;6.68;;;;;;;29.38;52.62;99118.34;4916620;29;20052;-77
2023/08/28 08:55:40;;;;;;;9.20;6.80;;;;;;;29.39;52.25;99111.78;4916935;29;20509;-75
2023/08/28 08:58:11;;;;;;;9.88;6.63;;;;;;;29.40;52.34;99113.44;4916982;29;20062;-76
2023/08/28 09:00:43;;;;;;;10.30;6.85;;;;;;;29.40;52.27;99113.44;4916933;29;20516;-77
2023/08/28 09:03:13;;;;;;;9.40;6.60;;;;;;;29.42;52.50;99111.28;4917079;29;20044;-77
2023/08/28 09:05:45;;;;;;;8.93;6.40;;;;;;;29.44;52.95;99119.31;4916902;29;20052;-76
2023/08/28 09:08:15;;;;;;;8.68;7.03;;;;;;;29.43;52.66;99118.44;4916386;29;20047;-77
2023/08/28 09:10:45;;;;;;;8.13;6.65;;;;;;;29.46;52.61;99114.41;4916346;29;20052;-76
2023/08/28 09:13:13;;;;;;;8.75;6.53;;;;;;;29.46;52.75;99111.66;4916156;29;20107;-77
2023/08/28 09:15:42;;;;;;;8.05;6.45;;;;;;;29.48;52.46;99115.84;4916240;29;20059;-77
2023/08/28 09:18:10;;;;;;;9.63;6.72;;;;;;;29.48;52.64;99104.88;4916359;29;20051;-76
2023/08/28 09:20:43;;;;;;;8.63;7.07;;;;;;;29.51;52.35;99104.38;4915944;29;20111;-76
2023/08/28 09:23:11;;;;;;;;;;;;;;;29.51;52.34;99111.78;4916521;29;20454;-76
2023/08/28 09:25:40;;;;;;;9.40;7.05;;;;;;;29.51;52.29;99109.88;4916511;29;19930;-76
2023/08/28 09:28:13;;;;;;;9.73;6.95;;;;;;;29.52;52.15;99111.53;4916281;29;20080;-76
2023/08/28 09:30:42;;;;;;;10.55;7.03;;;;;;;29.54;52.47;99114.06;4915708;29;20087;-77
2023/08/28 09:33:11;;;;;;;11.15;7.05;;;;;;;29.54;52.14;99123.13;4899109;29;20100;-76
2023/08/28 09:35:41;;;;;;;8.27;6.57;;;;;;;29.56;51.97;99112.72;4916583;29;20052;-77
2023/08/28 09:38:11;;;;;;;9.15;6.88;;;;;;;29.55;52.04;99097.34;4916563;29;20130;-77
2023/08/28 09:40:41;;;;;;;8.68;6.75;;;;;;;29.57;51.76;99100.66;4916331;29;20052;-78
2023/08/28 09:43:12;;;;;;;9.23;7.22;;;;;;;29.60;51.63;99107.56;4916503;29;20103;-76
2023/08/28 09:45:40;;;;;;;10.80;7.20;;;;;;;29.60;51.75;99102.91;4915843;29;20047;-76
2023/08/28 09:48:10;;;;;;;9.75;7.38;;;;;;;29.60;51.62;99097.41;4916021;29;20500;-76
2023/08/28 09:50:40;;;;;;;12.73;7.72;;;;;;;29.63;52.08;99085.13;4916179;29;20056;-77
2023/08/28 09:53:11;;;;;;;10.75;7.28;;;;;;;29.64;51.87;99090.38;4916188;29;20080;-76
2023/08/28 09:55:40;;;;;;;10.52;7.18;;;;;;;29.66;51.73;99081.06;4916535;29;20056;-77
2023/08/28 09:58:12;;;;;;;10.27;6.75;;;;;;;29.67;51.78;99077.22;4920170;29;20048;-77
2023/08/28 10:00:41;;;;;;;11.10;7.35;;;;;;;29.67;51.71;99075.31;4920195;29;20414;-76
2023/08/28 10:03:11;;;;;;;11.32;7.65;;;;;;;29.69;51.69;99070.38;4919982;29;20098;-76
2023/08/28 10:05:42;;;;;;;12.60;7.82;;;;;;;29.72;51.87;99071.81;4919901;29;20060;-77
2023/08/28 10:08:13;;;;;;;9.70;7.07;;;;;;;29.72;51.97;99072.63;4920121;29;20059;-76
2023/08/28 10:10:42;;;;;;;9.40;6.63;;;;;;;29.74;51.87;99075.16;4920108;29;20052;-76
2023/08/28 10:13:14;;;;;;;11.35;8.27;;;;;;;29.76;51.94;99076.59;4920120;29;20461;-77
2023/08/28 10:15:51;;;;;;;12.47;7.77;;;;;;;29.76;51.60;99062.00;4919562;29;20139;-76
2023/08/28 10:18:26;;;;;;;10.80;7.53;;;;;;;29.79;51.84;99056.84;4919388;29;20052;-76
2023/08/28 10:20:55;;;;;;;9.70;7.53;;;;;;;29.80;51.39;99050.25;4918952;29;20051;-76
2023/08/28 10:23:26;;;;;;;11.63;7.80;;;;;;;29.81;51.58;99054.69;4919305;29;20454;-75
2023/08/28 10:25:56;;;;;;;10.18;7.53;;;;;;;29.83;51.50;99046.22;4919214;29;20588;-76
2023/08/28 10:28:26;;;;;;;10.82;7.95;;;;;;;29.84;51.26;99036.88;4919200;29;20482;-76
2023/08/28 10:30:59;;;;;;;11.05;7.07;;;;;;;29.86;51.18;99035.56;4918717;29;20048;-76
2023/08/28 10:33:30;;;;;;;10.88;7.65;;;;;;;29.88;50.84;99033.38;4919310;29;20111;-77
2023/08/28 10:36:00;;;;;;;11.18;6.93;;;;;;;29.90;51.16;99030.38;4919110;29;20048;-76
2023/08/28 10:38:33;;;;;;;9.75;7.35;;;;;;;29.91;51.06;99023.81;4921378;29;20072;-76
2023/08/28 10:41:07;;;;;;;10.18;7.55;;;;;;;29.94;50.78;99023.31;4919065;29;20063;-76
2023/08/28 10:43:36;;;;;;;11.50;7.60;;;;;;;29.96;51.11;99023.06;4919321;29;20052;-77
2023/08/28 10:46:05;;;;;;;9.82;7.45;;;;;;;29.98;50.89;99013.50;4919490;29;20079;-77
2023/08/28 10:48:37;;;;;;;11.07;7.22;;;;;;;29.99;50.71;99006.91;4919187;29;20362;-78
2023/08/28 10:51:06;;;;;;;10.15;7.30;;;;;;;30.00;51.02;99005.81;4919733;29;20135;-77
2023/08/28 10:53:35;;;;;;;10.23;7.28;;;;;;;30.03;50.91;99008.09;4919130;29;20059;-77
2023/08/28 10:56:06;;;;;;;10.52;8.02;;;;;;;30.05;51.00;99005.09;4919360;29;20047;-77
2023/08/28 10:58:38;;;;;;;10.48;7.88;;;;;;;30.08;50.87;99004.63;4919269;29;20134;-77
2023/08/28 11:01:14;;;;;;;10.18;7.55;;;;;;;30.10;50.68;99002.44;4919005;29;20063;-77
2023/08/28 11:03:56;;;;;;;9.48;7.10;;;;;;;30.14;50.66;99001.72;4919080;29;20071;-77
2023/08/28 11:06:42;;;;;;;10.50;7.50;;;;;;;30.16;50.35;99002.28;4918574;29;20056;-77
2023/08/28 11:09:37;;;;;;;10.65;7.53;;;;;;;30.19;50.20;98996.28;4918312;29;20080;-77
2023/08/28 11:12:27;;;;;;;12.48;7.68;;;;;;;30.25;49.98;99001.88;4918289;29;20108;-77
2023/08/28 11:15:00;;;;;;;11.30;7.55;;;;;;;30.27;49.72;99002.44;4918185;29;20048;-76
2023/08/28 11:17:30;;;;;;;;;;;;;;;30.30;49.09;98996.44;4918649;29;20052;-77
2023/08/28 11:20:11;;;;;;;11.50;7.53;;;;;;;30.34;49.12;98995.72;4918142;29;19962;-77
2023/08/28 11:22:41;;;;;;;9.63;7.30;;;;;;;30.36;48.76;98990.78;4918074;29;20088;-76
2023/08/28 11:25:12;;;;;;;10.57;6.60;;;;;;;30.38;48.82;98987.78;4918048;29;20055;-76
2023/08/28 11:27:46;;;;;;;10.23;7.20;;;;;;;30.40;48.78;98985.59;4918057;29;20047;-75
2023/08/28 11:30:17;;;;;;;10.40;6.90;;;;;;;30.42;48.72;98989.78;4917687;29;20048;-77
2023/08/28 11:32:49;;;;;;;11.98;7.60;;;;;;;30.44;48.42;98987.59;4917497;29;20048;-76
2023/08/28 11:35:19;;;;;;;10.13;7.00;;;;;;;30.46;48.58;98984.59;4917766;29;20056;-76
2023/08/28 11:37:50;;;;;;;10.85;7.22;;;;;;;30.48;48.61;98976.94;4917692;29;20055;-76
2023/08/28 11:40:21;;;;;;;11.48;7.57;;;;;;;30.52;48.39;98971.78;4917675;29;20081;-76
2023/08/28 11:42:51;;;;;;;11.75;7.50;;;;;;;30.53;48.63;98966.00;4917567;29;20074;-76